sensor_id;sensor_type;location;lat;lon;timestamp;P1;durP1;ratioP1;P2;durP2;ratioP2
52530;SDS011;38441;52.894;6.040;2023-05-28T00:00:29;9.95;;;4.65;;
52530;SDS011;38441;52.894;6.040;2023-05-28T00:02:55;11.68;;;5.30;;
52530;SDS011;38441;52.894;6.040;2023-05-28T00:05:21;11.30;;;4.50;;
52530;SDS011;38441;52.894;6.040;2023-05-28T00:07:47;13.25;;;4.88;;
52530;SDS011;38441;52.894;6.040;2023-05-28T00:10:13;14.07;;;5.05;;
52530;SDS011;38441;52.894;6.040;2023-05-28T00:12:39;14.98;;;5.15;;
52530;SDS011;38441;52.894;6.040;2023-05-28T00:15:05;14.73;;;5.25;;
52530;SDS011;38441;52.894;6.040;2023-05-28T00:17:31;13.43;;;5.07;;
52530;SDS011;38441;52.894;6.040;2023-05-28T00:19:57;11.93;;;4.85;;
52530;SDS011;38441;52.894;6.040;2023-05-28T00:22:23;21.92;;;5.40;;
52530;SDS011;38441;52.894;6.040;2023-05-28T00:24:50;12.57;;;5.38;;
52530;SDS011;38441;52.894;6.040;2023-05-28T00:27:15;13.98;;;4.82;;
52530;SDS011;38441;52.894;6.040;2023-05-28T00:29:41;13.50;;;5.95;;
52530;SDS011;38441;52.894;6.040;2023-05-28T00:32:09;13.98;;;5.35;;
52530;SDS011;38441;52.894;6.040;2023-05-28T00:34:35;18.52;;;5.47;;
52530;SDS011;38441;52.894;6.040;2023-05-28T00:37:01;12.60;;;5.10;;
52530;SDS011;38441;52.894;6.040;2023-05-28T00:39:26;15.13;;;5.38;;
52530;SDS011;38441;52.894;6.040;2023-05-28T00:42:02;12.40;;;4.95;;
52530;SDS011;38441;52.894;6.040;2023-05-28T00:44:29;12.55;;;5.15;;
52530;SDS011;38441;52.894;6.040;2023-05-28T00:46:57;13.60;;;4.90;;
52530;SDS011;38441;52.894;6.040;2023-05-28T00:49:24;15.70;;;5.72;;
52530;SDS011;38441;52.894;6.040;2023-05-28T00:51:50;13.95;;;5.68;;
52530;SDS011;38441;52.894;6.040;2023-05-28T00:54:16;10.93;;;4.70;;
52530;SDS011;38441;52.894;6.040;2023-05-28T00:56:42;15.18;;;5.28;;
52530;SDS011;38441;52.894;6.040;2023-05-28T00:59:09;14.98;;;4.95;;
52530;SDS011;38441;52.894;6.040;2023-05-28T01:01:35;15.88;;;5.45;;
52530;SDS011;38441;52.894;6.040;2023-05-28T01:04:02;14.45;;;5.22;;
52530;SDS011;38441;52.894;6.040;2023-05-28T01:06:28;10.02;;;4.78;;
52530;SDS011;38441;52.894;6.040;2023-05-28T01:08:56;12.60;;;5.00;;
52530;SDS011;38441;52.894;6.040;2023-05-28T01:11:22;15.80;;;5.88;;
52530;SDS011;38441;52.894;6.040;2023-05-28T01:13:48;12.07;;;5.78;;
52530;SDS011;38441;52.894;6.040;2023-05-28T01:16:15;13.40;;;5.53;;
52530;SDS011;38441;52.894;6.040;2023-05-28T01:18:41;12.63;;;4.82;;
52530;SDS011;38441;52.894;6.040;2023-05-28T01:21:09;14.63;;;5.97;;
52530;SDS011;38441;52.894;6.040;2023-05-28T01:23:43;15.15;;;6.47;;
52530;SDS011;38441;52.894;6.040;2023-05-28T01:26:13;13.50;;;6.18;;
52530;SDS011;38441;52.894;6.040;2023-05-28T01:28:43;12.80;;;4.95;;
52530;SDS011;38441;52.894;6.040;2023-05-28T01:31:11;12.85;;;5.70;;
52530;SDS011;38441;52.894;6.040;2023-05-28T01:33:37;14.10;;;5.50;;
52530;SDS011;38441;52.894;6.040;2023-05-28T01:36:06;18.27;;;6.22;;
52530;SDS011;38441;52.894;6.040;2023-05-28T01:38:51;16.52;;;5.88;;
52530;SDS011;38441;52.894;6.040;2023-05-28T01:41:18;15.75;;;6.00;;
52530;SDS011;38441;52.894;6.040;2023-05-28T01:43:45;11.63;;;5.18;;
52530;SDS011;38441;52.894;6.040;2023-05-28T01:46:11;15.38;;;6.05;;
52530;SDS011;38441;52.894;6.040;2023-05-28T01:48:37;13.15;;;5.70;;
52530;SDS011;38441;52.894;6.040;2023-05-28T01:51:03;12.70;;;5.28;;
52530;SDS011;38441;52.894;6.040;2023-05-28T01:53:30;12.98;;;6.13;;
52530;SDS011;38441;52.894;6.040;2023-05-28T01:55:56;15.98;;;5.60;;
52530;SDS011;38441;52.894;6.040;2023-05-28T01:58:22;13.10;;;6.00;;
52530;SDS011;38441;52.894;6.040;2023-05-28T02:01:00;16.83;;;6.57;;
52530;SDS011;38441;52.894;6.040;2023-05-28T02:03:42;19.15;;;5.78;;
52530;SDS011;38441;52.894;6.040;2023-05-28T02:06:08;16.75;;;5.65;;
52530;SDS011;38441;52.894;6.040;2023-05-28T02:08:35;15.32;;;5.70;;
52530;SDS011;38441;52.894;6.040;2023-05-28T02:11:01;18.17;;;6.70;;
52530;SDS011;38441;52.894;6.040;2023-05-28T02:13:27;11.00;;;5.35;;
52530;SDS011;38441;52.894;6.040;2023-05-28T02:15:54;16.38;;;6.47;;
52530;SDS011;38441;52.894;6.040;2023-05-28T02:18:20;13.43;;;5.95;;
52530;SDS011;38441;52.894;6.040;2023-05-28T02:20:46;13.55;;;6.10;;
52530;SDS011;38441;52.894;6.040;2023-05-28T02:23:12;13.93;;;5.82;;
52530;SDS011;38441;52.894;6.040;2023-05-28T02:25:38;15.10;;;6.55;;
52530;SDS011;38441;52.894;6.040;2023-05-28T02:28:04;18.13;;;6.18;;
52530;SDS011;38441;52.894;6.040;2023-05-28T02:30:30;13.43;;;5.70;;
52530;SDS011;38441;52.894;6.040;2023-05-28T02:32:56;15.10;;;5.65;;
52530;SDS011;38441;52.894;6.040;2023-05-28T02:35:22;14.70;;;6.10;;
52530;SDS011;38441;52.894;6.040;2023-05-28T02:37:48;13.88;;;5.82;;
52530;SDS011;38441;52.894;6.040;2023-05-28T02:40:14;16.25;;;6.10;;
52530;SDS011;38441;52.894;6.040;2023-05-28T02:42:40;15.82;;;6.22;;
52530;SDS011;38441;52.894;6.040;2023-05-28T02:45:06;15.40;;;6.32;;
52530;SDS011;38441;52.894;6.040;2023-05-28T02:47:32;14.40;;;6.03;;
52530;SDS011;38441;52.894;6.040;2023-05-28T02:49:57;13.90;;;5.65;;
52530;SDS011;38441;52.894;6.040;2023-05-28T02:52:23;12.23;;;5.93;;
52530;SDS011;38441;52.894;6.040;2023-05-28T02:54:50;14.65;;;6.40;;
52530;SDS011;38441;52.894;6.040;2023-05-28T02:57:15;16.40;;;6.85;;
52530;SDS011;38441;52.894;6.040;2023-05-28T02:59:41;15.52;;;6.55;;
52530;SDS011;38441;52.894;6.040;2023-05-28T03:02:07;12.70;;;5.32;;
52530;SDS011;38441;52.894;6.040;2023-05-28T03:04:33;15.57;;;5.93;;
52530;SDS011;38441;52.894;6.040;2023-05-28T03:07:00;13.48;;;6.00;;
52530;SDS011;38441;52.894;6.040;2023-05-28T03:09:26;10.98;;;5.72;;
52530;SDS011;38441;52.894;6.040;2023-05-28T03:11:52;15.45;;;6.25;;
52530;SDS011;38441;52.894;6.040;2023-05-28T03:14:18;14.38;;;6.22;;
52530;SDS011;38441;52.894;6.040;2023-05-28T03:16:44;12.15;;;5.35;;
52530;SDS011;38441;52.894;6.040;2023-05-28T03:19:10;14.48;;;5.35;;
52530;SDS011;38441;52.894;6.040;2023-05-28T03:21:36;14.55;;;6.00;;
52530;SDS011;38441;52.894;6.040;2023-05-28T03:24:02;15.73;;;6.65;;
52530;SDS011;38441;52.894;6.040;2023-05-28T03:26:27;15.38;;;5.90;;
52530;SDS011;38441;52.894;6.040;2023-05-28T03:28:53;13.23;;;5.95;;
52530;SDS011;38441;52.894;6.040;2023-05-28T03:31:19;14.00;;;6.15;;
52530;SDS011;38441;52.894;6.040;2023-05-28T03:33:46;13.73;;;6.20;;
52530;SDS011;38441;52.894;6.040;2023-05-28T03:36:12;17.63;;;5.93;;
52530;SDS011;38441;52.894;6.040;2023-05-28T03:38:37;16.15;;;6.22;;
52530;SDS011;38441;52.894;6.040;2023-05-28T03:41:03;13.00;;;5.35;;
52530;SDS011;38441;52.894;6.040;2023-05-28T03:43:30;14.75;;;6.07;;
52530;SDS011;38441;52.894;6.040;2023-05-28T03:45:56;13.93;;;6.15;;
52530;SDS011;38441;52.894;6.040;2023-05-28T03:48:21;10.23;;;5.88;;
52530;SDS011;38441;52.894;6.040;2023-05-28T03:50:47;19.25;;;7.13;;
52530;SDS011;38441;52.894;6.040;2023-05-28T03:53:13;14.50;;;6.13;;
52530;SDS011;38441;52.894;6.040;2023-05-28T03:55:38;14.70;;;6.13;;
52530;SDS011;38441;52.894;6.040;2023-05-28T03:58:04;14.73;;;6.07;;
52530;SDS011;38441;52.894;6.040;2023-05-28T04:00:30;16.00;;;5.90;;
52530;SDS011;38441;52.894;6.040;2023-05-28T04:02:56;16.90;;;6.25;;
52530;SDS011;38441;52.894;6.040;2023-05-28T04:05:21;11.23;;;5.80;;
52530;SDS011;38441;52.894;6.040;2023-05-28T04:07:48;15.30;;;5.70;;
52530;SDS011;38441;52.894;6.040;2023-05-28T04:10:13;14.65;;;6.07;;
52530;SDS011;38441;52.894;6.040;2023-05-28T04:12:39;16.27;;;6.20;;
52530;SDS011;38441;52.894;6.040;2023-05-28T04:15:05;15.00;;;6.00;;
52530;SDS011;38441;52.894;6.040;2023-05-28T04:17:32;14.45;;;6.63;;
52530;SDS011;38441;52.894;6.040;2023-05-28T04:19:58;14.52;;;5.47;;
52530;SDS011;38441;52.894;6.040;2023-05-28T04:22:24;11.88;;;5.75;;
52530;SDS011;38441;52.894;6.040;2023-05-28T04:24:51;14.27;;;6.25;;
52530;SDS011;38441;52.894;6.040;2023-05-28T04:27:20;14.27;;;5.45;;
52530;SDS011;38441;52.894;6.040;2023-05-28T04:29:46;16.02;;;6.75;;
52530;SDS011;38441;52.894;6.040;2023-05-28T04:32:12;13.68;;;6.45;;
52530;SDS011;38441;52.894;6.040;2023-05-28T04:34:38;16.13;;;6.80;;
52530;SDS011;38441;52.894;6.040;2023-05-28T04:37:08;12.65;;;5.88;;
52530;SDS011;38441;52.894;6.040;2023-05-28T04:39:34;19.30;;;6.88;;
52530;SDS011;38441;52.894;6.040;2023-05-28T04:42:00;14.75;;;6.03;;
52530;SDS011;38441;52.894;6.040;2023-05-28T04:44:28;15.73;;;6.75;;
52530;SDS011;38441;52.894;6.040;2023-05-28T04:46:55;13.38;;;6.20;;
52530;SDS011;38441;52.894;6.040;2023-05-28T04:49:24;16.10;;;6.03;;
52530;SDS011;38441;52.894;6.040;2023-05-28T04:51:50;14.80;;;6.30;;
52530;SDS011;38441;52.894;6.040;2023-05-28T04:54:16;16.27;;;6.25;;
52530;SDS011;38441;52.894;6.040;2023-05-28T04:56:42;13.98;;;5.70;;
52530;SDS011;38441;52.894;6.040;2023-05-28T04:59:08;13.73;;;6.00;;
52530;SDS011;38441;52.894;6.040;2023-05-28T05:01:35;11.20;;;5.45;;
52530;SDS011;38441;52.894;6.040;2023-05-28T05:04:01;11.85;;;5.93;;
52530;SDS011;38441;52.894;6.040;2023-05-28T05:06:27;13.45;;;5.93;;
52530;SDS011;38441;52.894;6.040;2023-05-28T05:08:53;11.77;;;5.28;;
52530;SDS011;38441;52.894;6.040;2023-05-28T05:11:19;13.60;;;5.28;;
52530;SDS011;38441;52.894;6.040;2023-05-28T05:13:49;16.02;;;5.70;;
52530;SDS011;38441;52.894;6.040;2023-05-28T05:16:15;19.48;;;5.70;;
52530;SDS011;38441;52.894;6.040;2023-05-28T05:18:41;12.95;;;5.20;;
52530;SDS011;38441;52.894;6.040;2023-05-28T05:21:07;12.50;;;5.10;;
52530;SDS011;38441;52.894;6.040;2023-05-28T05:23:35;14.63;;;4.72;;
52530;SDS011;38441;52.894;6.040;2023-05-28T05:26:00;13.35;;;6.10;;
52530;SDS011;38441;52.894;6.040;2023-05-28T05:28:26;13.35;;;4.88;;
52530;SDS011;38441;52.894;6.040;2023-05-28T05:30:51;12.02;;;5.50;;
52530;SDS011;38441;52.894;6.040;2023-05-28T05:33:17;13.77;;;5.18;;
52530;SDS011;38441;52.894;6.040;2023-05-28T05:35:43;14.68;;;4.88;;
52530;SDS011;38441;52.894;6.040;2023-05-28T05:38:09;13.88;;;4.97;;
52530;SDS011;38441;52.894;6.040;2023-05-28T05:40:35;12.63;;;5.28;;
52530;SDS011;38441;52.894;6.040;2023-05-28T05:43:01;16.83;;;5.40;;
52530;SDS011;38441;52.894;6.040;2023-05-28T05:45:27;17.70;;;5.57;;
52530;SDS011;38441;52.894;6.040;2023-05-28T05:47:53;11.45;;;5.20;;
52530;SDS011;38441;52.894;6.040;2023-05-28T05:50:18;10.18;;;4.72;;
52530;SDS011;38441;52.894;6.040;2023-05-28T05:52:44;11.95;;;5.47;;
52530;SDS011;38441;52.894;6.040;2023-05-28T05:55:10;13.82;;;5.18;;
52530;SDS011;38441;52.894;6.040;2023-05-28T05:57:35;14.38;;;5.35;;
52530;SDS011;38441;52.894;6.040;2023-05-28T06:00:02;17.00;;;5.80;;
52530;SDS011;38441;52.894;6.040;2023-05-28T06:02:35;12.85;;;4.57;;
52530;SDS011;38441;52.894;6.040;2023-05-28T06:05:02;10.32;;;4.85;;
52530;SDS011;38441;52.894;6.040;2023-05-28T06:07:29;12.60;;;5.20;;
52530;SDS011;38441;52.894;6.040;2023-05-28T06:09:55;14.23;;;5.30;;
52530;SDS011;38441;52.894;6.040;2023-05-28T06:12:21;13.98;;;5.10;;
52530;SDS011;38441;52.894;6.040;2023-05-28T06:14:47;9.55;;;4.28;;
52530;SDS011;38441;52.894;6.040;2023-05-28T06:17:14;10.82;;;5.07;;
52530;SDS011;38441;52.894;6.040;2023-05-28T06:19:40;15.50;;;5.10;;
52530;SDS011;38441;52.894;6.040;2023-05-28T06:22:06;12.90;;;4.47;;
52530;SDS011;38441;52.894;6.040;2023-05-28T06:24:33;9.50;;;3.83;;
52530;SDS011;38441;52.894;6.040;2023-05-28T06:26:58;13.90;;;4.53;;
52530;SDS011;38441;52.894;6.040;2023-05-28T06:29:24;11.38;;;4.53;;
52530;SDS011;38441;52.894;6.040;2023-05-28T06:31:50;11.80;;;4.60;;
52530;SDS011;38441;52.894;6.040;2023-05-28T06:34:15;12.43;;;4.93;;
52530;SDS011;38441;52.894;6.040;2023-05-28T06:36:41;13.05;;;4.72;;
52530;SDS011;38441;52.894;6.040;2023-05-28T06:39:07;12.32;;;4.95;;
52530;SDS011;38441;52.894;6.040;2023-05-28T06:41:33;11.93;;;4.90;;
52530;SDS011;38441;52.894;6.040;2023-05-28T06:43:59;9.95;;;4.18;;
52530;SDS011;38441;52.894;6.040;2023-05-28T06:46:25;12.00;;;4.47;;
52530;SDS011;38441;52.894;6.040;2023-05-28T06:48:53;12.02;;;4.95;;
52530;SDS011;38441;52.894;6.040;2023-05-28T06:51:19;10.20;;;4.03;;
52530;SDS011;38441;52.894;6.040;2023-05-28T06:53:45;10.70;;;4.72;;
52530;SDS011;38441;52.894;6.040;2023-05-28T06:56:11;11.65;;;4.43;;
52530;SDS011;38441;52.894;6.040;2023-05-28T06:58:37;8.93;;;4.40;;
52530;SDS011;38441;52.894;6.040;2023-05-28T07:01:02;10.60;;;4.35;;
52530;SDS011;38441;52.894;6.040;2023-05-28T07:03:29;11.30;;;4.80;;
52530;SDS011;38441;52.894;6.040;2023-05-28T07:05:55;11.23;;;4.72;;
52530;SDS011;38441;52.894;6.040;2023-05-28T07:08:21;14.60;;;4.60;;
52530;SDS011;38441;52.894;6.040;2023-05-28T07:10:47;10.38;;;4.80;;
52530;SDS011;38441;52.894;6.040;2023-05-28T07:13:12;12.35;;;4.68;;
52530;SDS011;38441;52.894;6.040;2023-05-28T07:15:38;11.32;;;4.18;;
52530;SDS011;38441;52.894;6.040;2023-05-28T07:18:03;14.68;;;4.72;;
52530;SDS011;38441;52.894;6.040;2023-05-28T07:20:29;11.52;;;4.72;;
52530;SDS011;38441;52.894;6.040;2023-05-28T07:22:55;10.48;;;4.22;;
52530;SDS011;38441;52.894;6.040;2023-05-28T07:25:21;13.07;;;4.35;;
52530;SDS011;38441;52.894;6.040;2023-05-28T07:27:47;11.95;;;4.30;;
52530;SDS011;38441;52.894;6.040;2023-05-28T07:30:12;12.38;;;4.30;;
52530;SDS011;38441;52.894;6.040;2023-05-28T07:32:38;14.18;;;5.25;;
52530;SDS011;38441;52.894;6.040;2023-05-28T07:35:04;9.95;;;4.40;;
52530;SDS011;38441;52.894;6.040;2023-05-28T07:37:31;11.35;;;4.40;;
52530;SDS011;38441;52.894;6.040;2023-05-28T07:39:57;8.23;;;4.15;;
52530;SDS011;38441;52.894;6.040;2023-05-28T07:42:22;10.55;;;4.68;;
52530;SDS011;38441;52.894;6.040;2023-05-28T07:44:48;8.88;;;4.05;;
52530;SDS011;38441;52.894;6.040;2023-05-28T07:47:14;9.27;;;4.35;;
52530;SDS011;38441;52.894;6.040;2023-05-28T07:49:41;13.98;;;5.07;;
52530;SDS011;38441;52.894;6.040;2023-05-28T07:52:07;11.75;;;4.82;;
52530;SDS011;38441;52.894;6.040;2023-05-28T07:54:33;9.45;;;4.10;;
52530;SDS011;38441;52.894;6.040;2023-05-28T07:56:59;11.38;;;4.00;;
52530;SDS011;38441;52.894;6.040;2023-05-28T07:59:25;10.25;;;4.07;;
52530;SDS011;38441;52.894;6.040;2023-05-28T08:01:51;9.82;;;4.07;;
52530;SDS011;38441;52.894;6.040;2023-05-28T08:04:18;11.32;;;4.63;;
52530;SDS011;38441;52.894;6.040;2023-05-28T08:06:43;12.23;;;4.20;;
52530;SDS011;38441;52.894;6.040;2023-05-28T08:09:09;10.85;;;4.50;;
52530;SDS011;38441;52.894;6.040;2023-05-28T08:11:35;12.20;;;5.10;;
52530;SDS011;38441;52.894;6.040;2023-05-28T08:14:00;8.98;;;4.20;;
52530;SDS011;38441;52.894;6.040;2023-05-28T08:16:27;10.25;;;4.32;;
52530;SDS011;38441;52.894;6.040;2023-05-28T08:18:53;11.68;;;4.22;;
52530;SDS011;38441;52.894;6.040;2023-05-28T08:21:19;11.45;;;4.30;;
52530;SDS011;38441;52.894;6.040;2023-05-28T08:23:45;12.32;;;4.60;;
52530;SDS011;38441;52.894;6.040;2023-05-28T08:26:10;10.95;;;4.43;;
52530;SDS011;38441;52.894;6.040;2023-05-28T08:28:36;9.88;;;4.47;;
52530;SDS011;38441;52.894;6.040;2023-05-28T08:31:02;11.73;;;4.32;;
52530;SDS011;38441;52.894;6.040;2023-05-28T08:33:27;11.60;;;3.97;;
52530;SDS011;38441;52.894;6.040;2023-05-28T08:35:54;10.82;;;4.68;;
52530;SDS011;38441;52.894;6.040;2023-05-28T08:38:20;10.75;;;4.72;;
52530;SDS011;38441;52.894;6.040;2023-05-28T08:40:53;10.40;;;4.03;;
52530;SDS011;38441;52.894;6.040;2023-05-28T08:43:19;10.45;;;4.25;;
52530;SDS011;38441;52.894;6.040;2023-05-28T08:45:51;10.95;;;4.53;;
52530;SDS011;38441;52.894;6.040;2023-05-28T08:48:17;9.35;;;4.25;;
52530;SDS011;38441;52.894;6.040;2023-05-28T08:50:46;11.90;;;5.07;;
52530;SDS011;38441;52.894;6.040;2023-05-28T08:53:19;10.18;;;4.90;;
52530;SDS011;38441;52.894;6.040;2023-05-28T08:55:47;11.90;;;4.50;;
52530;SDS011;38441;52.894;6.040;2023-05-28T08:58:13;12.20;;;4.63;;
52530;SDS011;38441;52.894;6.040;2023-05-28T09:00:40;11.75;;;4.97;;
52530;SDS011;38441;52.894;6.040;2023-05-28T09:03:06;11.13;;;4.80;;
52530;SDS011;38441;52.894;6.040;2023-05-28T09:05:36;9.15;;;5.25;;
52530;SDS011;38441;52.894;6.040;2023-05-28T09:08:05;10.75;;;4.97;;
52530;SDS011;38441;52.894;6.040;2023-05-28T09:10:38;12.52;;;6.07;;
52530;SDS011;38441;52.894;6.040;2023-05-28T09:13:05;10.82;;;5.85;;
52530;SDS011;38441;52.894;6.040;2023-05-28T09:15:31;13.32;;;6.60;;
52530;SDS011;38441;52.894;6.040;2023-05-28T09:18:00;10.05;;;5.57;;
52530;SDS011;38441;52.894;6.040;2023-05-28T09:20:29;9.82;;;5.35;;
52530;SDS011;38441;52.894;6.040;2023-05-28T09:22:57;9.98;;;5.78;;
52530;SDS011;38441;52.894;6.040;2023-05-28T09:25:37;12.10;;;5.78;;
52530;SDS011;38441;52.894;6.040;2023-05-28T09:28:03;12.10;;;5.28;;
52530;SDS011;38441;52.894;6.040;2023-05-28T09:30:35;12.30;;;5.88;;
52530;SDS011;38441;52.894;6.040;2023-05-28T09:33:02;10.25;;;5.07;;
52530;SDS011;38441;52.894;6.040;2023-05-28T09:35:29;9.48;;;4.90;;
52530;SDS011;38441;52.894;6.040;2023-05-28T09:37:59;11.75;;;5.40;;
52530;SDS011;38441;52.894;6.040;2023-05-28T09:40:29;9.27;;;4.68;;
52530;SDS011;38441;52.894;6.040;2023-05-28T09:42:56;11.27;;;5.28;;
52530;SDS011;38441;52.894;6.040;2023-05-28T09:45:23;10.68;;;4.43;;
52530;SDS011;38441;52.894;6.040;2023-05-28T09:47:50;8.57;;;4.18;;
52530;SDS011;38441;52.894;6.040;2023-05-28T09:50:16;8.05;;;3.75;;
52530;SDS011;38441;52.894;6.040;2023-05-28T09:52:43;8.25;;;4.38;;
52530;SDS011;38441;52.894;6.040;2023-05-28T09:55:12;9.50;;;3.95;;
52530;SDS011;38441;52.894;6.040;2023-05-28T09:57:45;7.93;;;3.95;;
52530;SDS011;38441;52.894;6.040;2023-05-28T10:00:38;8.45;;;3.88;;
52530;SDS011;38441;52.894;6.040;2023-05-28T10:06:20;10.10;;;3.97;;
52530;SDS011;38441;52.894;6.040;2023-05-28T10:08:53;9.82;;;4.15;;
52530;SDS011;38441;52.894;6.040;2023-05-28T17:34:09;9.40;;;4.63;;
52530;SDS011;38441;52.894;6.040;2023-05-28T17:36:36;13.60;;;4.97;;
52530;SDS011;38441;52.894;6.040;2023-05-28T17:39:02;10.52;;;8.13;;
52530;SDS011;38441;52.894;6.040;2023-05-28T17:41:29;9.98;;;4.20;;
52530;SDS011;38441;52.894;6.040;2023-05-28T17:43:55;11.82;;;4.88;;
52530;SDS011;38441;52.894;6.040;2023-05-28T17:46:28;7.97;;;3.97;;
52530;SDS011;38441;52.894;6.040;2023-05-28T17:48:54;8.55;;;3.83;;
52530;SDS011;38441;52.894;6.040;2023-05-28T17:51:20;11.77;;;3.67;;
52530;SDS011;38441;52.894;6.040;2023-05-28T17:53:59;7.47;;;3.60;;
52530;SDS011;38441;52.894;6.040;2023-05-28T17:56:25;13.00;;;4.78;;
52530;SDS011;38441;52.894;6.040;2023-05-28T17:58:51;11.13;;;4.00;;
52530;SDS011;38441;52.894;6.040;2023-05-28T18:01:20;10.48;;;4.60;;
52530;SDS011;38441;52.894;6.040;2023-05-28T18:06:23;13.18;;;4.70;;
52530;SDS011;38441;52.894;6.040;2023-05-28T18:08:52;12.43;;;5.05;;
52530;SDS011;38441;52.894;6.040;2023-05-28T18:13:57;7.30;;;3.60;;
52530;SDS011;38441;52.894;6.040;2023-05-28T18:40:48;9.63;;;4.68;;
52530;SDS011;38441;52.894;6.040;2023-05-28T18:43:13;9.02;;;3.72;;
52530;SDS011;38441;52.894;6.040;2023-05-28T18:45:39;11.68;;;4.07;;
52530;SDS011;38441;52.894;6.040;2023-05-28T18:56:19;10.60;;;3.65;;
52530;SDS011;38441;52.894;6.040;2023-05-28T20:24:22;15.30;;;2.70;;
52530;SDS011;38441;52.894;6.040;2023-05-28T20:26:47;15.73;;;2.60;;
52530;SDS011;38441;52.894;6.040;2023-05-28T20:29:13;11.20;;;2.53;;
52530;SDS011;38441;52.894;6.040;2023-05-28T20:31:40;13.30;;;2.58;;
52530;SDS011;38441;52.894;6.040;2023-05-28T20:34:05;16.50;;;2.83;;
52530;SDS011;38441;52.894;6.040;2023-05-28T20:36:31;13.15;;;2.55;;
52530;SDS011;38441;52.894;6.040;2023-05-28T20:38:58;12.57;;;2.50;;
52530;SDS011;38441;52.894;6.040;2023-05-28T20:41:24;14.57;;;3.20;;
52530;SDS011;38441;52.894;6.040;2023-05-28T20:43:50;12.05;;;2.65;;
52530;SDS011;38441;52.894;6.040;2023-05-28T20:46:16;13.68;;;2.70;;
52530;SDS011;38441;52.894;6.040;2023-05-28T20:48:42;16.50;;;3.28;;
52530;SDS011;38441;52.894;6.040;2023-05-28T20:51:08;12.07;;;2.70;;
52530;SDS011;38441;52.894;6.040;2023-05-28T20:53:33;13.43;;;2.80;;
52530;SDS011;38441;52.894;6.040;2023-05-28T20:55:59;15.65;;;2.63;;
52530;SDS011;38441;52.894;6.040;2023-05-28T20:58:26;18.15;;;3.53;;
52530;SDS011;38441;52.894;6.040;2023-05-28T21:00:52;20.58;;;3.80;;
52530;SDS011;38441;52.894;6.040;2023-05-28T21:03:18;15.93;;;2.95;;
52530;SDS011;38441;52.894;6.040;2023-05-28T21:05:44;13.82;;;2.55;;
52530;SDS011;38441;52.894;6.040;2023-05-28T21:08:10;11.20;;;2.28;;
52530;SDS011;38441;52.894;6.040;2023-05-28T21:10:36;16.80;;;2.85;;
52530;SDS011;38441;52.894;6.040;2023-05-28T21:13:03;16.33;;;2.90;;
52530;SDS011;38441;52.894;6.040;2023-05-28T21:15:29;16.33;;;2.97;;
52530;SDS011;38441;52.894;6.040;2023-05-28T21:17:55;15.15;;;3.05;;
52530;SDS011;38441;52.894;6.040;2023-05-28T21:20:22;15.82;;;2.53;;
52530;SDS011;38441;52.894;6.040;2023-05-28T21:22:48;10.50;;;2.40;;
52530;SDS011;38441;52.894;6.040;2023-05-28T21:25:13;16.67;;;2.50;;
52530;SDS011;38441;52.894;6.040;2023-05-28T21:27:39;20.00;;;3.63;;
52530;SDS011;38441;52.894;6.040;2023-05-28T21:30:05;14.00;;;2.63;;
52530;SDS011;38441;52.894;6.040;2023-05-28T21:32:31;11.25;;;2.58;;
52530;SDS011;38441;52.894;6.040;2023-05-28T21:34:57;14.57;;;2.42;;
52530;SDS011;38441;52.894;6.040;2023-05-28T21:37:24;16.42;;;2.83;;
52530;SDS011;38441;52.894;6.040;2023-05-28T21:39:50;14.20;;;2.78;;
52530;SDS011;38441;52.894;6.040;2023-05-28T21:42:18;15.60;;;2.70;;
52530;SDS011;38441;52.894;6.040;2023-05-28T21:44:45;13.73;;;2.80;;
52530;SDS011;38441;52.894;6.040;2023-05-28T21:47:11;20.67;;;3.28;;
52530;SDS011;38441;52.894;6.040;2023-05-28T21:49:37;14.23;;;2.70;;
52530;SDS011;38441;52.894;6.040;2023-05-28T21:52:03;17.80;;;3.38;;
52530;SDS011;38441;52.894;6.040;2023-05-28T21:54:29;14.00;;;3.03;;
52530;SDS011;38441;52.894;6.040;2023-05-28T21:56:55;17.50;;;3.22;;
52530;SDS011;38441;52.894;6.040;2023-05-28T21:59:21;11.65;;;2.28;;
52530;SDS011;38441;52.894;6.040;2023-05-28T22:01:47;17.48;;;3.25;;
52530;SDS011;38441;52.894;6.040;2023-05-28T22:04:13;14.27;;;2.92;;
52530;SDS011;38441;52.894;6.040;2023-05-28T22:06:40;15.23;;;2.72;;
52530;SDS011;38441;52.894;6.040;2023-05-28T22:09:11;13.57;;;2.95;;
52530;SDS011;38441;52.894;6.040;2023-05-28T22:11:38;12.43;;;2.20;;
52530;SDS011;38441;52.894;6.040;2023-05-28T22:14:04;12.90;;;2.42;;
52530;SDS011;38441;52.894;6.040;2023-05-28T22:16:30;9.65;;;2.20;;
52530;SDS011;38441;52.894;6.040;2023-05-28T22:18:56;11.70;;;1.95;;
52530;SDS011;38441;52.894;6.040;2023-05-28T22:21:23;12.40;;;2.42;;
52530;SDS011;38441;52.894;6.040;2023-05-28T22:23:49;17.85;;;2.78;;
52530;SDS011;38441;52.894;6.040;2023-05-28T22:26:16;13.93;;;1.98;;
52530;SDS011;38441;52.894;6.040;2023-05-28T22:28:43;8.73;;;1.95;;
52530;SDS011;38441;52.894;6.040;2023-05-28T22:31:10;13.30;;;2.42;;
52530;SDS011;38441;52.894;6.040;2023-05-28T22:33:36;12.63;;;1.75;;
52530;SDS011;38441;52.894;6.040;2023-05-28T22:36:02;16.40;;;3.05;;
52530;SDS011;38441;52.894;6.040;2023-05-28T22:38:28;16.00;;;2.83;;
52530;SDS011;38441;52.894;6.040;2023-05-28T22:40:54;19.10;;;2.58;;
52530;SDS011;38441;52.894;6.040;2023-05-28T22:43:20;14.48;;;2.65;;
52530;SDS011;38441;52.894;6.040;2023-05-28T22:45:46;13.48;;;2.20;;
52530;SDS011;38441;52.894;6.040;2023-05-28T22:48:13;15.10;;;2.25;;
52530;SDS011;38441;52.894;6.040;2023-05-28T22:50:39;13.98;;;2.25;;
52530;SDS011;38441;52.894;6.040;2023-05-28T22:53:05;11.40;;;2.28;;
52530;SDS011;38441;52.894;6.040;2023-05-28T22:55:31;9.15;;;2.25;;
52530;SDS011;38441;52.894;6.040;2023-05-28T22:57:57;16.02;;;2.15;;
52530;SDS011;38441;52.894;6.040;2023-05-28T23:00:23;12.38;;;1.95;;
52530;SDS011;38441;52.894;6.040;2023-05-28T23:02:49;14.50;;;2.03;;
52530;SDS011;38441;52.894;6.040;2023-05-28T23:05:15;11.52;;;1.63;;
52530;SDS011;38441;52.894;6.040;2023-05-28T23:07:42;10.68;;;2.00;;
52530;SDS011;38441;52.894;6.040;2023-05-28T23:10:08;9.00;;;1.90;;
52530;SDS011;38441;52.894;6.040;2023-05-28T23:12:34;11.13;;;2.58;;
52530;SDS011;38441;52.894;6.040;2023-05-28T23:15:02;15.25;;;2.70;;
52530;SDS011;38441;52.894;6.040;2023-05-28T23:17:29;9.57;;;1.88;;
52530;SDS011;38441;52.894;6.040;2023-05-28T23:19:55;14.63;;;2.47;;
52530;SDS011;38441;52.894;6.040;2023-05-28T23:22:22;9.98;;;2.08;;
52530;SDS011;38441;52.894;6.040;2023-05-28T23:24:48;13.65;;;2.22;;
52530;SDS011;38441;52.894;6.040;2023-05-28T23:27:14;10.05;;;2.10;;
52530;SDS011;38441;52.894;6.040;2023-05-28T23:29:40;10.43;;;1.83;;
52530;SDS011;38441;52.894;6.040;2023-05-28T23:32:06;11.15;;;2.20;;
52530;SDS011;38441;52.894;6.040;2023-05-28T23:34:33;10.65;;;1.98;;
52530;SDS011;38441;52.894;6.040;2023-05-28T23:36:59;11.70;;;2.55;;
52530;SDS011;38441;52.894;6.040;2023-05-28T23:39:25;9.63;;;2.33;;
52530;SDS011;38441;52.894;6.040;2023-05-28T23:41:52;14.77;;;1.92;;
52530;SDS011;38441;52.894;6.040;2023-05-28T23:44:18;10.85;;;2.10;;
52530;SDS011;38441;52.894;6.040;2023-05-28T23:46:44;11.63;;;2.10;;
52530;SDS011;38441;52.894;6.040;2023-05-28T23:49:10;8.18;;;1.75;;
52530;SDS011;38441;52.894;6.040;2023-05-28T23:51:36;12.73;;;2.17;;
52530;SDS011;38441;52.894;6.040;2023-05-28T23:54:03;11.13;;;2.05;;
52530;SDS011;38441;52.894;6.040;2023-05-28T23:56:29;11.63;;;2.17;;
52530;SDS011;38441;52.894;6.040;2023-05-28T23:58:55;10.32;;;2.30;;
